KTOP/TOP METAR and TAF weather

Enter ICAO airport designator
Station Type Date Time Source
KTOP METAR 2019/10/23 20:53 UTC NOAA

KTOP 232053Z 30015G22KT 10SM CLR 18/06 A2991 RMK AO2 SLP126 T01830056 53020


Station Type Date Time Source
KTOP Decoded METAR 2019/10/23 20:53 UTC NOAA

TOPEKA BILLARD MUNICIPAL AIRPORT, KS, United States (KTOP) 39-04N 95-38W 268M
Oct 23, 2019 - 04:53 PM EDT / 2019.10.23 2053 UTC
Wind: from the WNW (300 degrees) at 17 MPH (15 KT) gusting to 25 MPH (22 KT):0
Visibility: 10 mile(s):0
Sky conditions: clear
Temperature: 64.9 F (18.3 C)
Dew Point: 42.1 F (5.6 C)
Relative Humidity: 43%
Pressure (altimeter): 29.91 in. Hg (1012 hPa)
Pressure tendency: 0.06 inches (2.0 hPa) higher than three hours ago
ob: KTOP 232053Z 30015G22KT 10SM CLR 18/06 A2991 RMK AO2 SLP126 T01830056 53020
cycle: 21

Station Type Date Time Source
KTOP TAF 2019/10/23 18:27 UTC NOAA

TAF KTOP 231724Z 2318/2418 24013G22KT P6SM SCT250
FM232000 29012KT P6SM SCT250
FM240000 30005KT P6SM BKN250
FM240300 34010KT P6SM SCT150
FM240900 36012KT P6SM OVC060

Example: see airport list